Time;durP1;ratioP1;P1;durP2;ratioP2;P2;SDS_P1;SDS_P2;PMS_P1;PMS_P2;Temp;Humidity;BMP_temperature;BMP_pressure;BME280_temperature;BME280_humidity;BME280_pressure;Samples;Min_cycle;Max_cycle;Signal;HPM_P1;HPM_P2
2023/08/14 00:01:10;;;;;;;3.17;2.22;;;17.10;92.70;;;;;;5018741;28;20065;-79
2023/08/14 00:03:36;;;;;;;4.63;1.80;;;17.10;93.20;;;;;;5013391;28;20037;-79
2023/08/14 00:06:02;;;;;;;8.93;2.45;;;17.10;93.60;;;;;;4997064;28;20034;-79
2023/08/14 00:08:27;;;;;;;9.52;2.92;;;17.10;93.40;;;;;;5014165;28;20034;-79
2023/08/14 00:10:54;;;;;;;6.45;2.42;;;16.90;93.40;;;;;;4999499;28;20033;-79
2023/08/14 00:13:20;;;;;;;6.60;2.30;;;16.80;93.70;;;;;;5000852;28;20401;-79
2023/08/14 00:15:46;;;;;;;4.35;2.05;;;16.80;93.80;;;;;;4983094;28;20046;-79
2023/08/14 00:18:11;;;;;;;3.58;1.75;;;16.80;93.80;;;;;;4995281;28;20029;-79
2023/08/14 00:20:37;;;;;;;4.63;2.10;;;16.80;94.20;;;;;;5015973;28;20041;-79
2023/08/14 00:23:03;;;;;;;6.57;1.77;;;16.80;94.20;;;;;;4985511;28;20409;-79
2023/08/14 00:25:28;;;;;;;4.30;2.53;;;16.70;93.70;;;;;;4997440;28;20034;-79
2023/08/14 00:27:54;;;;;;;8.43;2.28;;;16.70;94.40;;;;;;5001214;28;20319;-79
2023/08/14 00:30:20;;;;;;;4.40;2.13;;;16.70;94.20;;;;;;5003712;28;20046;-78
2023/08/14 00:32:45;;;;;;;7.18;2.90;;;16.70;94.10;;;;;;4986279;28;20041;-79
2023/08/14 00:35:11;;;;;;;6.60;2.40;;;16.60;94.30;;;;;;5019967;28;20095;-79
2023/08/14 00:37:41;;;;;;;4.82;2.20;;;16.50;94.30;;;;;;5019394;28;20029;-79
2023/08/14 00:40:07;;;;;;;2.65;1.85;;;16.60;94.70;;;;;;5003275;28;20038;-78
2023/08/14 00:42:33;;;;;;;5.47;2.15;;;16.60;94.80;;;;;;5014578;28;20701;-79
2023/08/14 00:44:58;;;;;;;9.85;2.97;;;16.70;94.80;;;;;;5017254;28;20048;-79
2023/08/14 00:47:24;;;;;;;7.20;2.35;;;16.70;94.90;;;;;;5004124;28;20022;-79
2023/08/14 00:49:49;;;;;;;5.80;1.88;;;16.60;94.80;;;;;;4990427;28;20034;-78
2023/08/14 00:52:15;;;;;;;5.30;2.85;;;16.50;95.00;;;;;;5017610;28;20032;-78
2023/08/14 00:54:40;;;;;;;3.85;2.28;;;16.70;95.00;;;;;;5014748;28;20155;-79
2023/08/14 00:57:06;;;;;;;11.35;3.22;;;16.50;95.00;;;;;;5015652;28;20508;-78
2023/08/14 00:59:32;;;;;;;6.53;2.67;;;16.50;95.10;;;;;;5004612;28;20069;-78
2023/08/14 01:01:57;;;;;;;2.38;1.63;;;16.40;95.20;;;;;;5005511;28;20040;-81
2023/08/14 01:04:23;;;;;;;2.33;2.03;;;16.50;95.20;;;;;;5001383;28;20746;-80
2023/08/14 01:06:49;;;;;;;5.43;1.92;;;16.50;95.20;;;;;;4987178;28;20065;-79
2023/08/14 01:09:14;;;;;;;2.78;1.83;;;16.50;95.30;;;;;;5017900;28;20029;-80
2023/08/14 01:11:50;;;;;;;7.03;2.70;;;16.60;95.20;;;;;;4990742;28;20036;-79
2023/08/14 01:14:23;;;;;;;8.93;2.23;;;16.40;95.20;;;;;;4986135;28;20284;-79
2023/08/14 01:16:53;;;;;;;4.72;2.67;;;16.30;95.20;;;;;;4993363;28;20273;-79
2023/08/14 01:19:24;;;;;;;7.80;2.65;;;16.20;95.60;;;;;;5005333;28;20073;-79
2023/08/14 01:22:23;;;;;;;10.10;3.42;;;16.20;95.60;;;;;;5011262;28;20120;-79
2023/08/14 01:24:59;;;;;;;3.65;2.00;;;16.10;97.30;;;;;;5016625;28;20038;-80
2023/08/14 01:27:25;;;;;;;5.80;2.90;;;16.10;96.10;;;;;;5017167;28;20042;-80
2023/08/14 01:29:56;;;;;;;3.78;1.70;;;16.20;96.10;;;;;;5015990;28;20438;-80
2023/08/14 01:32:21;;;;;;;6.47;3.00;;;16.30;96.10;;;;;;5016673;28;20145;-80
2023/08/14 01:34:47;;;;;;;4.65;2.47;;;16.20;96.10;;;;;;5018242;28;20129;-80
2023/08/14 01:37:41;;;;;;;2.65;1.85;;;16.00;96.20;;;;;;5000494;28;20116;-79
2023/08/14 01:40:23;;;;;;;5.30;2.63;;;16.10;96.60;;;;;;4988137;28;20095;-80
2023/08/14 01:42:50;;;;;;;4.35;2.10;;;16.10;96.50;;;;;;4991003;28;20044;-79
2023/08/14 01:45:18;;;;;;;3.15;1.70;;;16.10;96.60;;;;;;5001900;28;20493;-79
2023/08/14 01:47:44;;;;;;;5.57;2.13;;;16.10;96.50;;;;;;5019718;28;20040;-80
2023/08/14 01:50:09;;;;;;;9.55;3.00;;;16.00;96.30;;;;;;5017405;28;20045;-80
2023/08/14 01:52:35;;;;;;;3.35;1.83;;;16.00;96.50;;;;;;4990736;28;20512;-80
2023/08/14 01:55:00;;;;;;;6.60;2.55;;;16.00;97.20;;;;;;5021121;28;20026;-80
2023/08/14 01:57:27;;;;;;;9.35;3.25;;;16.00;97.00;;;;;;5015313;28;20053;-80
2023/08/14 01:59:52;;;;;;;10.10;3.17;;;16.00;96.90;;;;;;5003237;28;20442;-79
2023/08/14 02:02:18;;;;;;;6.63;2.42;;;15.90;97.30;;;;;;4996857;28;20144;-79
2023/08/14 02:04:43;;;;;;;4.18;2.63;;;15.90;97.00;;;;;;5016933;28;20123;-80
2023/08/14 02:07:12;;;;;;;11.63;2.85;;;15.90;97.40;;;;;;4999334;28;20044;-80
2023/08/14 02:09:37;;;;;;;6.60;3.10;;;15.80;97.20;;;;;;5002535;28;20079;-80
2023/08/14 02:12:03;;;;;;;6.95;2.78;;;15.80;97.20;;;;;;5017582;28;20034;-79
2023/08/14 02:14:29;;;;;;;5.43;3.03;;;15.80;97.30;;;;;;5018081;28;20029;-80
2023/08/14 02:16:55;;;;;;;9.02;3.35;;;15.70;97.40;;;;;;5016361;28;20041;-79
2023/08/14 02:19:20;;;;;;;10.93;3.42;;;15.70;98.10;;;;;;4985261;28;20033;-79
2023/08/14 02:21:46;;;;;;;9.45;3.70;;;15.70;99.90;;;;;;5000387;28;20074;-80
2023/08/14 02:24:12;;;;;;;5.18;2.95;;;15.50;99.90;;;;;;5016863;28;20493;-80
2023/08/14 02:26:37;;;;;;;3.72;2.40;;;15.50;99.10;;;;;;5001597;28;20055;-79
2023/08/14 02:29:03;;;;;;;3.03;1.98;;;15.60;98.70;;;;;;5015755;28;20128;-79
2023/08/14 02:31:29;;;;;;;3.97;2.20;;;15.60;98.50;;;;;;5016900;28;20718;-80
2023/08/14 02:33:58;;;;;;;3.85;1.73;;;15.60;98.80;;;;;;5021989;28;20390;-79
2023/08/14 02:36:24;;;;;;;7.43;2.25;;;15.60;98.70;;;;;;5015157;28;20379;-80
2023/08/14 02:38:50;;;;;;;5.88;2.13;;;15.60;98.70;;;;;;5001082;28;20040;-78
2023/08/14 02:41:16;;;;;;;3.03;2.17;;;15.40;98.40;;;;;;5003663;28;20033;-80
2023/08/14 02:43:41;;;;;;;3.97;2.17;;;15.30;98.40;;;;;;5018601;28;20592;-80
2023/08/14 02:46:07;;;;;;;5.13;2.33;;;15.30;98.70;;;;;;4990933;28;20485;-80
2023/08/14 02:48:32;;;;;;;7.70;2.55;;;15.30;99.70;;;;;;5017176;28;20557;-80
2023/08/14 02:50:58;;;;;;;7.05;2.35;;;15.50;99.90;;;;;;5014533;28;20040;-80
2023/08/14 02:53:23;;;;;;;5.72;2.53;;;15.50;99.90;;;;;;4999532;28;20033;-80
2023/08/14 02:55:51;;;;;;;3.85;1.80;;;15.60;99.90;;;;;;5016035;28;20037;-79
2023/08/14 02:58:16;;;;;;;8.32;2.63;;;15.60;99.90;;;;;;5017848;28;20164;-80
2023/08/14 03:00:42;;;;;;;7.53;2.67;;;15.40;99.90;;;;;;5017126;28;20112;-80
2023/08/14 03:03:07;;;;;;;3.97;2.20;;;15.30;99.90;;;;;;4983013;28;20049;-79
2023/08/14 03:05:33;;;;;;;5.70;2.25;;;15.30;99.90;;;;;;5016911;28;20451;-80
2023/08/14 03:07:59;;;;;;;5.53;3.05;;;15.20;99.90;;;;;;5016008;28;20037;-79
2023/08/14 03:10:25;;;;;;;5.60;2.38;;;15.10;99.90;;;;;;5017912;28;20436;-80
2023/08/14 03:12:51;;;;;;;5.90;2.15;;;15.10;99.90;;;;;;4989702;28;20037;-80
2023/08/14 03:15:16;;;;;;;5.55;2.78;;;15.00;99.90;;;;;;4985609;28;20111;-79
2023/08/14 03:17:42;;;;;;;7.65;2.67;;;14.90;99.90;;;;;;5001181;28;20030;-80
2023/08/14 03:20:09;;;;;;;7.65;3.30;;;14.90;99.90;;;;;;4999494;28;20062;-80
2023/08/14 03:22:35;;;;;;;8.57;2.88;;;14.90;99.90;;;;;;4989910;28;20064;-80
2023/08/14 03:25:00;;;;;;;6.38;3.40;;;14.80;99.90;;;;;;5020114;28;20117;-79
2023/08/14 03:27:26;;;;;;;5.72;2.70;;;14.70;99.90;;;;;;4996366;28;20025;-80
2023/08/14 03:29:52;;;;;;;4.60;3.08;;;14.70;99.90;;;;;;4996096;28;20037;-80
2023/08/14 03:32:17;;;;;;;4.82;3.45;;;14.70;99.90;;;;;;5017771;28;20396;-79
2023/08/14 03:34:43;;;;;;;9.65;3.05;;;14.70;99.90;;;;;;5004190;28;20033;-79
2023/08/14 03:37:08;;;;;;;6.60;2.78;;;14.70;99.90;;;;;;5013668;28;20398;-80
2023/08/14 03:39:34;;;;;;;8.32;3.22;;;14.70;99.90;;;;;;5020613;28;20428;-80
2023/08/14 03:41:59;;;;;;;6.50;3.20;;;14.70;99.90;;;;;;5018294;28;20048;-80
2023/08/14 03:44:25;;;;;;;10.88;3.53;;;14.60;99.90;;;;;;4988473;28;20096;-79
2023/08/14 03:46:50;;;;;;;6.55;3.53;;;14.50;99.90;;;;;;4999415;28;20037;-80
2023/08/14 03:49:16;;;;;;;10.00;4.10;;;14.40;99.90;;;;;;5002939;28;20373;-80
2023/08/14 03:51:41;;;;;;;12.65;3.95;;;14.40;99.90;;;;;;4988965;28;20027;-80
2023/08/14 03:54:07;;;;;;;8.60;4.38;;;14.30;99.90;;;;;;5013673;28;20064;-80
2023/08/14 03:56:33;;;;;;;8.75;3.80;;;14.20;99.90;;;;;;4998256;28;20391;-80
2023/08/14 03:58:58;;;;;;;12.57;3.70;;;14.20;99.90;;;;;;5016078;28;20405;-80
2023/08/14 04:01:24;;;;;;;14.23;3.75;;;14.20;99.90;;;;;;5014621;28;20049;-80
2023/08/14 04:03:50;;;;;;;5.65;3.22;;;14.30;99.90;;;;;;4988739;28;20508;-79
2023/08/14 04:06:16;;;;;;;11.13;4.13;;;14.30;99.90;;;;;;4989795;28;20037;-79
2023/08/14 04:08:41;;;;;;;8.18;3.42;;;14.40;99.90;;;;;;5016723;28;20079;-79
2023/08/14 04:11:07;;;;;;;10.30;3.78;;;14.30;99.90;;;;;;4993650;28;20054;-80
2023/08/14 04:13:32;;;;;;;12.27;3.30;;;14.30;99.90;;;;;;5017108;28;20137;-79
2023/08/14 04:16:03;;;;;;;10.15;3.63;;;14.30;99.90;;;;;;5001218;28;20065;-79
2023/08/14 04:18:29;;;;;;;6.85;3.90;;;14.20;99.90;;;;;;5002680;28;20120;-80
2023/08/14 04:20:54;;;;;;;9.30;3.95;;;14.10;99.90;;;;;;5015924;28;20129;-79
2023/08/14 04:23:22;;;;;;;9.07;3.33;;;14.10;99.90;;;;;;5005287;28;20136;-79
2023/08/14 04:25:47;;;;;;;10.07;3.58;;;14.10;99.90;;;;;;5001851;28;20049;-79
2023/08/14 04:28:13;;;;;;;7.78;4.05;;;14.20;99.90;;;;;;4985409;28;20036;-80
2023/08/14 04:30:38;;;;;;;13.90;4.40;;;14.10;99.90;;;;;;4989400;28;20049;-79
2023/08/14 04:33:04;;;;;;;7.32;3.85;;;14.00;99.90;;;;;;4982071;28;20039;-80
2023/08/14 04:35:30;;;;;;;7.07;3.88;;;14.00;99.90;;;;;;5003929;28;20118;-79
2023/08/14 04:37:55;;;;;;;9.10;4.03;;;14.10;99.90;;;;;;5002870;28;20026;-78
2023/08/14 04:40:21;;;;;;;5.43;2.95;;;14.10;99.90;;;;;;4990255;28;20030;-78
2023/08/14 04:42:46;;;;;;;12.35;5.25;;;14.30;99.90;;;;;;5019052;28;20048;-78
2023/08/14 04:45:12;;;;;;;8.73;4.82;;;14.30;99.90;;;;;;5019850;28;20040;-78
2023/08/14 04:47:37;;;;;;;4.88;3.30;;;14.30;99.90;;;;;;5021616;28;20089;-80
2023/08/14 04:50:04;;;;;;;13.18;4.90;;;14.50;99.90;;;;;;5017248;28;20038;-78
2023/08/14 04:52:29;;;;;;;12.70;5.00;;;14.50;99.90;;;;;;5017421;28;20183;-80
2023/08/14 04:54:55;;;;;;;9.75;5.22;;;14.50;99.90;;;;;;5002984;28;20583;-80
2023/08/14 04:57:20;;;;;;;10.23;5.18;;;14.50;99.90;;;;;;5015100;28;20528;-81
2023/08/14 04:59:46;;;;;;;9.52;4.80;;;14.40;99.90;;;;;;5015101;28;20034;-81
2023/08/14 05:02:11;;;;;;;9.07;5.88;;;14.40;99.90;;;;;;5016830;28;20057;-80
2023/08/14 05:04:37;;;;;;;12.93;6.13;;;14.50;99.90;;;;;;4995388;28;20041;-80
2023/08/14 05:07:03;;;;;;;12.60;5.40;;;14.50;99.90;;;;;;4997677;28;20037;-80
2023/08/14 05:09:28;;;;;;;10.50;5.03;;;14.60;99.90;;;;;;5004408;28;20026;-80
2023/08/14 05:11:54;;;;;;;10.70;5.40;;;14.60;99.90;;;;;;5018583;28;20034;-80
2023/08/14 05:14:19;;;;;;;10.60;4.47;;;14.70;99.90;;;;;;5004563;28;20080;-80
2023/08/14 05:16:45;;;;;;;12.20;5.35;;;14.80;99.90;;;;;;5017702;28;20060;-80
2023/08/14 05:19:11;;;;;;;7.65;4.72;;;15.00;99.90;;;;;;5004087;28;20038;-80
2023/08/14 05:21:36;;;;;;;15.48;5.07;;;15.00;99.90;;;;;;4986272;28;20087;-80
2023/08/14 05:24:02;;;;;;;12.23;5.97;;;15.10;99.90;;;;;;5004094;28;20104;-80
2023/08/14 05:26:28;;;;;;;9.30;5.00;;;15.20;99.90;;;;;;5000679;28;20065;-80
2023/08/14 05:28:53;;;;;;;11.48;5.40;;;15.30;99.90;;;;;;4995201;28;20034;-80
2023/08/14 05:31:19;;;;;;;13.95;5.43;;;15.50;99.90;;;;;;4994553;28;20030;-81
2023/08/14 05:33:44;;;;;;;8.50;4.82;;;15.50;99.90;;;;;;4983011;28;20025;-80
2023/08/14 05:36:10;;;;;;;6.57;5.38;;;15.70;99.90;;;;;;5001839;28;20408;-80
2023/08/14 05:38:35;;;;;;;12.60;5.03;;;15.70;99.90;;;;;;5018679;28;20033;-80
2023/08/14 05:41:01;;;;;;;15.00;4.93;;;15.90;99.90;;;;;;5003212;28;20045;-80
2023/08/14 05:43:26;;;;;;;9.63;4.75;;;16.00;99.90;;;;;;4990370;28;20033;-80
2023/08/14 05:45:52;;;;;;;8.82;4.28;;;16.00;99.90;;;;;;5001274;28;20030;-80
2023/08/14 05:48:18;;;;;;;8.60;5.50;;;16.20;99.90;;;;;;5003886;28;20409;-80
2023/08/14 05:50:43;;;;;;;14.63;4.78;;;16.30;99.90;;;;;;4999016;28;20382;-80
2023/08/14 05:53:09;;;;;;;10.68;5.25;;;16.50;99.90;;;;;;5015422;28;20026;-80
2023/08/14 05:55:36;;;;;;;8.38;4.13;;;16.70;99.90;;;;;;4988885;28;20053;-79
2023/08/14 05:58:02;;;;;;;7.05;4.45;;;16.80;99.90;;;;;;4987941;28;20037;-80
2023/08/14 06:00:28;;;;;;;5.13;3.20;;;17.00;99.90;;;;;;5036335;28;20045;-80
2023/08/14 06:02:53;;;;;;;8.75;3.90;;;17.20;99.90;;;;;;5013009;28;20037;-80
2023/08/14 06:05:19;;;;;;;12.05;3.72;;;17.30;99.90;;;;;;5015992;28;20101;-80
2023/08/14 06:07:47;;;;;;;9.38;3.67;;;17.60;99.90;;;;;;5013179;28;20038;-80
2023/08/14 06:10:12;;;;;;;11.20;4.60;;;17.70;99.90;;;;;;5015908;28;20426;-81
2023/08/14 06:12:38;;;;;;;5.75;3.70;;;17.90;99.90;;;;;;5017967;28;20159;-81
2023/08/14 06:15:04;;;;;;;11.77;4.55;;;18.00;99.90;;;;;;4977838;28;20053;-81
2023/08/14 06:17:29;;;;;;;10.82;3.70;;;18.20;99.90;;;;;;5023321;28;20756;-81
2023/08/14 06:19:55;;;;;;;9.18;4.00;;;18.30;99.90;;;;;;5018193;28;20026;-81
2023/08/14 06:22:20;;;;;;;9.00;3.47;;;18.40;99.90;;;;;;5014126;28;20029;-81
2023/08/14 06:24:46;;;;;;;6.00;2.92;;;18.60;99.90;;;;;;4998652;28;20034;-80
2023/08/14 06:27:12;;;;;;;7.10;3.28;;;18.70;99.90;;;;;;5013356;28;20120;-80
2023/08/14 06:29:37;;;;;;;8.85;3.80;;;18.80;99.90;;;;;;4992510;28;20057;-81
2023/08/14 06:32:05;;;;;;;8.38;3.78;;;18.90;99.90;;;;;;5004988;28;20060;-79
2023/08/14 06:34:30;;;;;;;6.70;3.13;;;19.10;99.90;;;;;;4990579;28;20052;-81
2023/08/14 06:36:56;;;;;;;6.55;3.30;;;19.30;99.90;;;;;;5012465;28;20025;-80
2023/08/14 06:39:21;;;;;;;8.70;3.90;;;19.40;99.90;;;;;;4993258;28;20046;-80
2023/08/14 06:41:47;;;;;;;7.82;3.42;;;19.50;99.90;;;;;;4998598;28;20111;-80
2023/08/14 06:44:12;;;;;;;5.63;2.83;;;19.60;99.90;;;;;;4997846;28;20069;-80
2023/08/14 06:46:38;;;;;;;3.75;2.42;;;19.80;99.90;;;;;;5014455;28;20375;-80
2023/08/14 06:49:04;;;;;;;7.82;3.22;;;19.80;99.90;;;;;;5013954;28;20053;-80
2023/08/14 06:51:30;;;;;;;11.05;3.70;;;20.00;99.90;;;;;;5002053;28;20485;-78
2023/08/14 06:53:56;;;;;;;8.20;3.20;;;20.30;99.90;;;;;;5017724;28;20057;-80
2023/08/14 06:56:21;;;;;;;8.85;3.33;;;20.50;99.90;;;;;;5016184;28;20079;-80
2023/08/14 06:58:47;;;;;;;7.65;2.72;;;20.60;99.90;;;;;;4997472;28;20034;-80
2023/08/14 07:01:13;;;;;;;7.53;3.28;;;20.70;99.90;;;;;;5015453;28;20033;-79
2023/08/14 07:03:38;;;;;;;6.22;3.08;;;20.90;99.90;;;;;;5002048;28;20037;-78
2023/08/14 07:06:04;;;;;;;5.60;3.25;;;21.10;99.90;;;;;;4997925;28;20044;-80
2023/08/14 07:08:32;;;;;;;7.47;2.67;;;21.30;99.90;;;;;;4993404;28;20040;-80
2023/08/14 07:10:58;;;;;;;8.23;2.88;;;21.50;99.90;;;;;;5002626;28;20040;-80
2023/08/14 07:13:24;;;;;;;11.30;2.72;;;21.70;99.90;;;;;;5002815;28;20037;-80
2023/08/14 07:15:49;;;;;;;6.35;1.75;;;22.00;99.90;;;;;;4999287;28;20045;-81
2023/08/14 07:18:17;;;;;;;6.25;2.40;;;22.00;99.90;;;;;;5000282;28;20072;-80
2023/08/14 07:20:44;;;;;;;5.40;2.90;;;22.00;99.90;;;;;;4989163;28;20041;-80
2023/08/14 07:23:12;;;;;;;16.02;3.75;;;22.40;99.90;;;;;;5024544;28;20042;-80
2023/08/14 07:25:38;;;;;;;8.82;2.80;;;22.70;99.90;;;;;;4999631;28;20767;-80
2023/08/14 07:28:04;;;;;;;6.68;2.90;;;22.90;99.90;;;;;;4981127;28;20033;-80
2023/08/14 07:30:29;;;;;;;6.22;3.00;;;23.00;99.90;;;;;;4999204;28;20041;-80
2023/08/14 07:32:55;;;;;;;5.18;3.08;;;23.10;99.90;;;;;;5018320;28;20096;-80
2023/08/14 07:35:21;;;;;;;7.40;3.35;;;23.20;99.90;;;;;;5012883;28;20036;-78
2023/08/14 07:37:46;;;;;;;4.32;2.80;;;23.30;99.90;;;;;;5002462;28;20034;-80
2023/08/14 07:40:12;;;;;;;5.93;2.92;;;23.30;99.90;;;;;;5005889;28;20141;-78
2023/08/14 07:42:38;;;;;;;9.57;3.50;;;23.40;99.90;;;;;;5018252;28;20057;-80
2023/08/14 07:45:03;;;;;;;10.48;3.33;;;23.40;99.90;;;;;;5004509;28;20030;-78
2023/08/14 07:47:29;;;;;;;9.93;2.97;;;23.40;99.90;;;;;;5016682;28;20034;-81
2023/08/14 07:49:55;;;;;;;9.82;3.22;;;23.40;99.90;;;;;;4994714;28;20026;-81
2023/08/14 07:52:20;;;;;;;4.60;2.85;;;23.60;99.90;;;;;;5019738;28;20022;-81
2023/08/14 07:54:46;;;;;;;12.68;3.45;;;23.70;99.90;;;;;;4988707;28;20045;-80
2023/08/14 07:57:11;;;;;;;6.63;2.70;;;23.80;99.90;;;;;;5000621;28;20037;-78
2023/08/14 07:59:39;;;;;;;8.02;2.80;;;23.90;99.90;;;;;;4982789;28;20597;-80
2023/08/14 08:02:05;;;;;;;6.07;2.75;;;24.10;99.90;;;;;;5022603;28;20643;-81
2023/08/14 08:04:36;;;;;;;9.43;3.20;;;24.30;99.90;;;;;;5017831;28;20049;-80
2023/08/14 08:07:02;;;;;;;10.23;3.08;;;24.60;99.90;;;;;;4990565;28;20033;-78
2023/08/14 08:09:28;;;;;;;5.90;2.88;;;24.90;99.90;;;;;;4991130;28;20026;-81
2023/08/14 08:11:53;;;;;;;6.53;3.13;;;25.10;99.90;;;;;;5019357;28;20482;-78
2023/08/14 08:14:19;;;;;;;5.60;2.38;;;25.20;99.90;;;;;;5005417;28;20057;-81
2023/08/14 08:16:44;;;;;;;3.22;1.70;;;25.20;99.90;;;;;;5015948;28;20389;-81
2023/08/14 08:19:10;;;;;;;4.55;2.22;;;25.40;99.90;;;;;;5021737;28;20069;-78
2023/08/14 08:21:36;;;;;;;8.57;3.25;;;25.30;99.90;;;;;;4999173;28;20060;-81
2023/08/14 08:24:04;;;;;;;10.70;3.03;;;25.60;99.90;;;;;;5017526;28;20497;-78
2023/08/14 08:26:30;;;;;;;6.90;2.50;;;25.70;99.90;;;;;;5014744;28;20025;-80
2023/08/14 08:28:55;;;;;;;9.13;2.50;;;25.80;99.90;;;;;;5021982;28;20375;-81
2023/08/14 08:31:21;;;;;;;7.60;2.90;;;25.70;99.90;;;;;;4990882;28;20049;-80
2023/08/14 08:33:46;;;;;;;6.57;2.35;;;25.80;99.90;;;;;;5004745;28;20040;-80
2023/08/14 08:36:13;;;;;;;5.00;2.00;;;25.80;99.90;;;;;;5022378;28;20038;-80
2023/08/14 08:38:38;;;;;;;6.03;2.67;;;25.80;99.90;;;;;;5017496;28;20030;-80
2023/08/14 08:41:04;;;;;;;7.15;2.92;;;25.80;99.90;;;;;;4999964;28;20038;-81
2023/08/14 08:43:30;;;;;;;8.48;2.83;;;26.00;99.90;;;;;;5002783;28;20045;-79
2023/08/14 08:45:58;;;;;;;4.88;2.05;;;26.10;99.90;;;;;;4988781;28;20104;-79
2023/08/14 08:48:24;;;;;;;5.70;1.85;;;26.00;99.90;;;;;;4990990;28;20043;-80
2023/08/14 08:50:50;;;;;;;5.57;2.50;;;25.90;99.90;;;;;;5019288;28;20593;-80
2023/08/14 08:53:20;;;;;;;5.22;2.53;;;26.20;99.90;;;;;;4999216;28;20508;-80
2023/08/14 08:55:46;;;;;;;5.07;1.48;;;26.30;99.90;;;;;;4989780;28;20037;-80
2023/08/14 08:58:13;;;;;;;6.47;2.22;;;26.30;98.70;;;;;;5014325;28;20401;-80
2023/08/14 09:00:39;;;;;;;8.93;2.70;;;26.40;99.90;;;;;;5002571;28;20493;-80
2023/08/14 09:03:04;;;;;;;4.35;1.92;;;26.60;99.20;;;;;;5000605;28;20036;-81
2023/08/14 09:05:30;;;;;;;6.68;1.73;;;26.60;98.70;;;;;;5019138;28;20025;-81
2023/08/14 09:07:55;;;;;;;3.83;1.60;;;27.00;97.70;;;;;;5002111;28;20029;-81
2023/08/14 09:10:21;;;;;;;6.82;2.03;;;27.00;99.50;;;;;;4999641;28;20928;-81
2023/08/14 09:12:47;;;;;;;5.28;1.75;;;26.90;98.90;;;;;;4990932;28;20168;-81
2023/08/14 09:15:12;;;;;;;2.25;1.55;;;26.90;99.00;;;;;;5005363;28;20769;-81
2023/08/14 09:17:38;;;;;;;11.70;2.28;;;27.10;98.60;;;;;;4989625;28;20033;-81
2023/08/14 09:20:06;;;;;;;4.15;1.85;;;27.30;98.30;;;;;;5001911;28;20488;-81
2023/08/14 09:22:32;;;;;;;3.60;1.65;;;27.30;98.60;;;;;;4990142;28;20046;-81
2023/08/14 09:24:57;;;;;;;3.05;1.80;;;27.40;97.40;;;;;;5016742;28;20037;-82
2023/08/14 09:27:23;;;;;;;4.32;1.85;;;27.40;97.70;;;;;;5019462;28;20523;-81
2023/08/14 09:29:51;;;;;;;4.47;1.38;;;27.50;97.60;;;;;;4988852;28;20120;-81
2023/08/14 09:32:16;;;;;;;6.72;2.30;;;27.70;97.00;;;;;;4994762;28;20809;-81
2023/08/14 09:34:42;;;;;;;3.72;2.08;;;27.80;96.80;;;;;;5000063;28;20026;-81
2023/08/14 09:37:07;;;;;;;5.55;1.77;;;28.00;96.70;;;;;;5016312;28;20042;-81
2023/08/14 09:39:33;;;;;;;4.80;1.92;;;28.20;96.80;;;;;;4987591;28;20109;-82
2023/08/14 09:41:59;;;;;;;5.47;1.60;;;28.20;97.00;;;;;;4990773;28;20636;-82
2023/08/14 09:44:25;;;;;;;4.57;1.75;;;28.60;95.20;;;;;;5020733;28;20053;-82
2023/08/14 09:46:51;;;;;;;2.72;1.70;;;28.50;95.50;;;;;;5002270;28;20026;-82
2023/08/14 09:49:18;;;;;;;4.00;1.60;;;28.70;95.70;;;;;;5016573;28;20074;-82
2023/08/14 09:51:55;;;;;;;6.30;1.80;;;28.70;95.40;;;;;;4982995;28;20555;-82
2023/08/14 09:54:32;;;;;;;8.73;1.88;;;28.70;95.60;;;;;;5017375;28;20505;-82
2023/08/14 09:56:59;;;;;;;6.72;2.25;;;29.70;93.80;;;;;;5001770;28;20060;-83
2023/08/14 09:59:26;;;;;;;4.15;1.98;;;29.40;93.90;;;;;;4999162;28;20471;-82
2023/08/14 10:02:00;;;;;;;5.32;1.88;;;29.20;93.80;;;;;;4986347;28;20038;-82
2023/08/14 10:04:28;;;;;;;3.30;1.60;;;29.90;92.40;;;;;;4983556;28;20158;-83
2023/08/14 10:06:53;;;;;;;7.97;2.15;;;30.10;92.30;;;;;;5000163;28;20030;-83
2023/08/14 10:09:22;;;;;;;9.52;1.92;;;29.90;91.60;;;;;;5019375;28;20145;-84
2023/08/14 10:11:48;;;;;;;4.95;1.70;;;29.80;91.20;;;;;;4979613;28;20035;-83
2023/08/14 10:14:13;;;;;;;3.78;1.70;;;29.80;91.50;;;;;;4989574;28;20033;-83
2023/08/14 10:16:40;;;;;;;1.98;1.30;;;30.00;91.80;;;;;;4996422;28;20311;-83
2023/08/14 10:19:09;;;;;;;6.22;2.08;;;30.10;92.20;;;;;;5010689;28;20504;-83
2023/08/14 10:21:35;;;;;;;5.13;1.80;;;31.00;88.10;;;;;;5001333;28;20084;-83
2023/08/14 10:24:03;;;;;;;2.88;1.75;;;31.40;87.90;;;;;;5017938;28;20030;-81
2023/08/14 10:26:29;;;;;;;4.20;1.67;;;31.10;90.10;;;;;;4998900;28;20531;-81
2023/08/14 10:28:57;;;;;;;5.70;2.10;;;31.00;88.10;;;;;;5003950;28;20497;-82
2023/08/14 10:31:25;;;;;;;5.13;2.00;;;31.60;83.60;;;;;;5017100;28;20037;-82
2023/08/14 10:33:50;;;;;;;2.25;1.52;;;31.30;87.50;;;;;;4996239;28;20442;-82
2023/08/14 10:36:19;;;;;;;2.35;1.52;;;30.90;88.50;;;;;;4991986;28;20026;-81
2023/08/14 10:38:50;;;;;;;6.60;1.88;;;31.00;87.60;;;;;;5006204;28;20688;-82
2023/08/14 10:41:16;;;;;;;3.25;1.88;;;32.10;81.50;;;;;;4985808;28;20048;-81
2023/08/14 10:43:42;;;;;;;3.67;1.98;;;31.80;85.40;;;;;;4992134;28;20408;-80
2023/08/14 10:46:14;;;;;;;6.28;2.00;;;31.70;84.60;;;;;;5003833;28;20056;-81
2023/08/14 10:48:41;;;;;;;2.92;1.45;;;31.60;82.90;;;;;;5004338;28;20088;-83
2023/08/14 10:51:08;;;;;;;7.15;2.40;;;31.40;84.90;;;;;;4992506;28;20037;-81
2023/08/14 10:53:34;;;;;;;3.67;2.00;;;31.70;84.90;;;;;;5009576;28;20513;-82
2023/08/14 10:56:00;;;;;;;4.30;1.60;;;31.60;85.40;;;;;;5006555;28;20041;-81
2023/08/14 10:58:28;;;;;;;4.28;1.50;;;32.00;82.80;;;;;;4984742;28;20040;-81
2023/08/14 11:00:55;;;;;;;7.10;2.00;;;32.60;81.90;;;;;;5015647;28;20481;-81
2023/08/14 11:03:21;;;;;;;5.90;1.65;;;32.90;77.70;;;;;;5016055;28;20394;-81
2023/08/14 11:05:47;;;;;;;5.72;2.15;;;33.10;78.70;;;;;;5000459;28;20030;-80
2023/08/14 11:08:13;;;;;;;5.38;1.55;;;33.70;76.00;;;;;;5002283;28;20037;-81
2023/08/14 11:10:39;;;;;;;5.32;1.65;;;33.50;73.80;;;;;;4999188;28;20034;-80
2023/08/14 11:13:11;;;;;;;7.45;2.28;;;33.90;72.70;;;;;;4996516;28;20040;-82
2023/08/14 11:15:39;;;;;;;2.88;1.40;;;34.00;72.70;;;;;;4984110;28;20045;-81
2023/08/14 11:18:06;;;;;;;3.97;1.85;;;33.50;75.30;;;;;;5010163;28;20781;-80
2023/08/14 11:20:32;;;;;;;3.47;1.45;;;34.10;72.90;;;;;;4987705;28;20036;-81
2023/08/14 11:22:59;;;;;;;3.22;1.70;;;33.90;75.50;;;;;;5002042;28;20034;-81
2023/08/14 11:25:24;;;;;;;8.35;2.22;;;34.00;72.50;;;;;;4990505;28;20129;-80
2023/08/14 11:27:54;;;;;;;10.43;1.73;;;34.30;71.40;;;;;;4984025;28;20061;-81
2023/08/14 11:30:24;;;;;;;3.97;1.52;;;34.60;67.70;;;;;;4986735;28;20021;-81
2023/08/14 11:32:50;;;;;;;6.82;2.25;;;34.90;68.00;;;;;;4985514;28;20033;-80
2023/08/14 11:35:16;;;;;;;5.45;1.60;;;34.50;68.90;;;;;;5015080;28;20030;-80
2023/08/14 11:37:42;;;;;;;6.57;1.63;;;34.50;66.80;;;;;;5012546;28;20818;-81
2023/08/14 11:40:09;;;;;;;5.53;1.80;;;35.20;62.20;;;;;;4980761;28;20091;-81
2023/08/14 11:42:35;;;;;;;6.22;2.10;;;35.20;64.60;;;;;;4983474;28;20084;-80
2023/08/14 11:45:03;;;;;;;3.90;1.70;;;35.30;63.40;;;;;;5001819;28;20503;-80
2023/08/14 11:47:34;;;;;;;6.20;2.22;;;35.30;63.90;;;;;;5017077;28;20638;-80
2023/08/14 11:50:00;;;;;;;4.43;1.60;;;34.60;66.80;;;;;;5016445;28;20041;-80
2023/08/14 11:52:26;;;;;;;4.38;1.60;;;34.60;69.40;;;;;;5015796;28;20494;-81
2023/08/14 11:54:55;;;;;;;4.53;1.70;;;35.10;66.70;;;;;;4984849;28;20079;-81
2023/08/14 11:57:25;;;;;;;5.95;2.15;;;35.20;63.80;;;;;;4988924;28;20124;-80
2023/08/14 11:59:52;;;;;;;7.20;1.55;;;35.20;62.00;;;;;;5003637;28;20065;-80
2023/08/14 12:02:19;;;;;;;6.50;2.10;;;35.00;63.70;;;;;;4998952;28;20544;-80
2023/08/14 12:04:45;;;;;;;5.80;1.80;;;35.00;63.40;;;;;;4998655;28;21041;-80
2023/08/14 12:07:10;;;;;;;3.60;1.92;;;34.90;63.10;;;;;;5015273;28;20048;-83
2023/08/14 12:09:37;;;;;;;4.68;1.90;;;34.70;65.40;;;;;;4980528;28;20088;-80
2023/08/14 12:12:03;;;;;;;5.80;2.20;;;34.90;64.60;;;;;;4994407;28;20702;-80
2023/08/14 12:14:43;;;;;;;3.20;2.00;;;35.20;64.00;;;;;;4987327;28;20032;-79
2023/08/14 12:17:10;;;;;;;2.97;1.75;;;35.20;64.60;;;;;;5004483;28;20052;-79
2023/08/14 12:19:39;;;;;;;4.93;1.90;;;35.50;62.10;;;;;;5012909;28;20056;-79
2023/08/14 12:22:07;;;;;;;4.65;1.88;;;35.40;64.90;;;;;;4987007;28;20034;-80
2023/08/14 12:24:40;;;;;;;6.90;2.08;;;35.20;66.10;;;;;;4989141;28;20099;-78
2023/08/14 12:27:22;;;;;;;3.28;1.73;;;35.30;65.40;;;;;;4986968;28;20034;-79
2023/08/14 12:29:48;;;;;;;6.10;2.00;;;35.40;65.90;;;;;;5001228;28;20148;-78
2023/08/14 12:32:17;;;;;;;6.93;1.80;;;35.70;64.10;;;;;;5017209;28;20120;-80
2023/08/14 12:34:42;;;;;;;4.18;1.77;;;36.10;60.60;;;;;;4987258;28;20559;-78
2023/08/14 12:37:12;;;;;;;4.13;1.70;;;36.40;60.00;;;;;;5022829;28;20041;-82
2023/08/14 12:39:38;;;;;;;4.43;1.70;;;36.00;62.50;;;;;;4990655;28;20040;-82
2023/08/14 12:42:04;;;;;;;5.35;1.88;;;35.80;61.00;;;;;;5005579;28;20045;-80